Michigan — WDF5344 — position and weather

sailwx.info

Track history (hours):
 
Tides and Currents Weather Stations Pressure Air Temp Water Temp Dewpoint Dewpoint Depression Visibility Wind Speed Wind Dir Waves Ship Positions

Michigan

Owner: GATX Third Aircraft Corporation, San Francisco, CA. More information available from US FCC via Universal Licensing System and Coast Guard Vessel Documentation Center.

Last reported at 2016-Jul-30 14:17 UTC. Time now 2016-Jul-30 18:50 UTC.
Position N 45°42' W 084°28'.

Length 144 m.

Type: Ship (hazmat cat D). MMSI: 303583000.

Date/timePositionNaut miles runAvg speedWind from/ knotsBaromVisibWave heightAir tempDewpointWater temp
2016-Jul-30 14:17N 45°42' W 084°28'1010.1
2016-Jul-30 13:18N 45°48' W 084°40'710.1
2016-Jul-30 12:33N 45°50' W 084°51'10 9.9
2016-Jul-30 11:33N 45°51' W 085°05'10 9.8
2016-Jul-30 10:33N 45°52' W 085°19'10 9.9
2016-Jul-30 09:33N 45°53' W 085°33'1110.6
2016-Jul-30 08:33N 45°49' W 085°47'1110.7
2016-Jul-30 07:33N 45°44' W 086°00'1110.7
2016-Jul-30 06:33N 45°38' W 086°13'17 0.5
2016-Jul-28 18:33N 45°46' W 085°53'1010.4
2016-Jul-28 17:33N 45°51' W 085°40'1010.0
2016-Jul-28 16:33N 45°53' W 085°25'1010.5
2016-Jul-28 15:33N 45°52' W 085°10'1010.5
2016-Jul-28 14:33N 45°50' W 084°55'1010.4
2016-Jul-28 13:33N 45°48' W 084°41'1010.4
2016-Jul-28 12:33N 45°42' W 084°28'3 0.2
2016-Jul-28 00:26N 45°39' W 084°28'7 7.9
2016-Jul-27 23:33N 45°41' W 084°18'174 9.6
2016-Jul-27 05:23N 43°07' W 082°25'7 9.0
2016-Jul-27 04:34N 42°60' W 082°25'7 6.9
2016-Jul-27 03:31N 42°53' W 082°28'  
2016-Jul-21 17:28N 45°40' W 084°27'9 9.2
2016-Jul-21 16:28N 45°46' W 084°37'1010.9
2016-Jul-21 15:34N 45°50' W 084°50'1110.7
2016-Jul-21 14:33N 45°51' W 085°06'1010.4
2016-Jul-21 13:33N 45°52' W 085°21'2010.0
2016-Jul-21 11:33N 45°48' W 085°49'  
Track history (hours):
 
Tides and Currents Weather Stations Pressure Air Temp Water Temp Dewpoint Dewpoint Depression Visibility Wind Speed Wind Dir Waves Ship Positions

Michigan

Owner: GATX Third Aircraft Corporation, San Francisco, CA. More information available from US FCC via Universal Licensing System and Coast Guard Vessel Documentation Center.

Last reported at 2016-Jul-30 14:17 UTC. Time now 2016-Jul-30 18:50 UTC.
Position N 45°42' W 084°28'.

Length 144 m.

Type: Ship (hazmat cat D). MMSI: 303583000.

Date/timePositionNaut miles runAvg speedWind from/ knotsBaromVisibWave heightAir tempDewpointWater temp
2016-Jul-30 14:17N 45°42' W 084°28'1010.1
2016-Jul-30 13:18N 45°48' W 084°40'710.1
2016-Jul-30 12:33N 45°50' W 084°51'10 9.9
2016-Jul-30 11:33N 45°51' W 085°05'10 9.8
2016-Jul-30 10:33N 45°52' W 085°19'10 9.9
2016-Jul-30 09:33N 45°53' W 085°33'1110.6
2016-Jul-30 08:33N 45°49' W 085°47'1110.7
2016-Jul-30 07:33N 45°44' W 086°00'1110.7
2016-Jul-30 06:33N 45°38' W 086°13'17 0.5
2016-Jul-28 18:33N 45°46' W 085°53'1010.4
2016-Jul-28 17:33N 45°51' W 085°40'1010.0
2016-Jul-28 16:33N 45°53' W 085°25'1010.5
2016-Jul-28 15:33N 45°52' W 085°10'1010.5
2016-Jul-28 14:33N 45°50' W 084°55'1010.4
2016-Jul-28 13:33N 45°48' W 084°41'1010.4
2016-Jul-28 12:33N 45°42' W 084°28'3 0.2
2016-Jul-28 00:26N 45°39' W 084°28'7 7.9
2016-Jul-27 23:33N 45°41' W 084°18'174 9.6
2016-Jul-27 05:23N 43°07' W 082°25'7 9.0
2016-Jul-27 04:34N 42°60' W 082°25'7 6.9
2016-Jul-27 03:31N 42°53' W 082°28'  
2016-Jul-21 17:28N 45°40' W 084°27'9 9.2
2016-Jul-21 16:28N 45°46' W 084°37'1010.9
2016-Jul-21 15:34N 45°50' W 084°50'1110.7
2016-Jul-21 14:33N 45°51' W 085°06'1010.4
2016-Jul-21 13:33N 45°52' W 085°21'2010.0
2016-Jul-21 11:33N 45°48' W 085°49'  

Dump ship's entire track history